createdAt,value
2018-12-27T00:02:15.340Z,94.60
2018-12-27T00:04:44.132Z,94.60
2018-12-27T00:07:12.988Z,94.60
2018-12-27T00:09:41.793Z,94.80
2018-12-27T00:12:11.033Z,94.80
2018-12-27T00:14:40.179Z,95.00
2018-12-27T00:17:09.015Z,95.20
2018-12-27T00:19:37.851Z,95.30
2018-12-27T00:22:06.664Z,95.50
2018-12-27T00:24:35.763Z,95.50
2018-12-27T00:27:04.649Z,95.50
2018-12-27T00:29:33.454Z,95.50
2018-12-27T00:32:02.512Z,95.70
2018-12-27T00:34:31.460Z,95.60
2018-12-27T00:37:00.546Z,95.70
2018-12-27T00:39:29.487Z,95.90
2018-12-27T00:41:58.456Z,95.60
2018-12-27T00:44:27.407Z,95.80
2018-12-27T00:46:56.387Z,95.90
2018-12-27T00:49:25.338Z,95.80
2018-12-27T00:51:54.492Z,95.60
2018-12-27T00:54:23.765Z,95.60
2018-12-27T00:56:52.691Z,95.60
2018-12-27T00:59:21.963Z,95.70
2018-12-27T01:01:51.327Z,95.80
2018-12-27T01:04:20.318Z,95.70
2018-12-27T01:06:49.606Z,95.80
2018-12-27T01:09:18.838Z,95.60
2018-12-27T01:11:47.824Z,95.10
2018-12-27T01:14:17.155Z,94.90
2018-12-27T01:16:46.139Z,94.50
2018-12-27T01:19:15.112Z,94.60
2018-12-27T01:21:44.077Z,94.40
2018-12-27T01:24:13.074Z,94.10
2018-12-27T01:26:42.041Z,94.40
2018-12-27T01:29:11.025Z,94.10
2018-12-27T01:31:40.088Z,94.10
2018-12-27T01:34:09.079Z,94.10
2018-12-27T01:36:38.395Z,94.10
2018-12-27T01:39:07.379Z,94.40
2018-12-27T01:41:36.363Z,94.10
2018-12-27T01:44:05.371Z,94.10
2018-12-27T01:46:34.648Z,94.40
2018-12-27T01:49:03.622Z,94.60
2018-12-27T01:51:32.562Z,94.60
2018-12-27T01:54:01.539Z,94.80
2018-12-27T01:56:30.555Z,94.60
2018-12-27T01:58:59.534Z,94.60
2018-12-27T02:01:28.533Z,94.20
2018-12-27T02:03:57.563Z,94.10
2018-12-27T02:06:26.524Z,94.30
2018-12-27T02:08:55.483Z,94.60
2018-12-27T02:11:24.544Z,94.90
2018-12-27T02:13:53.494Z,94.80
2018-12-27T02:16:22.427Z,94.80
2018-12-27T02:18:51.723Z,95.00
2018-12-27T02:21:20.679Z,95.40
2018-12-27T02:23:49.939Z,95.40
2018-12-27T02:26:19.192Z,95.30
2018-12-27T02:28:48.132Z,95.50
2018-12-27T02:31:17.123Z,95.40
2018-12-27T02:33:46.088Z,95.70
2018-12-27T02:36:15.323Z,95.50
2018-12-27T02:38:44.295Z,95.50
2018-12-27T02:41:13.313Z,95.70
2018-12-27T02:43:42.317Z,96.00
2018-12-27T02:46:11.331Z,95.60
2018-12-27T02:48:40.324Z,95.20
2018-12-27T02:51:09.286Z,95.40
2018-12-27T02:53:38.478Z,95.50
2018-12-27T02:56:07.451Z,95.10
2018-12-27T02:58:36.418Z,95.50
2018-12-27T03:01:05.398Z,95.70
2018-12-27T03:03:34.592Z,95.50
2018-12-27T03:06:03.558Z,95.40
2018-12-27T03:08:32.527Z,95.60
2018-12-27T03:11:01.763Z,95.70
2018-12-27T03:13:30.732Z,96.10
2018-12-27T03:16:00.051Z,96.20
2018-12-27T03:18:29.044Z,96.20
2018-12-27T03:20:58.003Z,96.20
2018-12-27T03:23:27.240Z,96.10
2018-12-27T03:25:56.182Z,96.50
2018-12-27T03:28:25.157Z,96.20
2018-12-27T03:30:54.096Z,96.30
2018-12-27T03:33:23.049Z,96.30
2018-12-27T03:35:52.042Z,96.60
2018-12-27T03:38:21.272Z,96.30
2018-12-27T03:40:50.239Z,96.60
2018-12-27T03:43:19.474Z,97.00
2018-12-27T03:45:48.404Z,97.20
2018-12-27T03:48:17.384Z,97.20
2018-12-27T03:50:46.360Z,97.40
2018-12-27T03:53:15.322Z,97.60
2018-12-27T03:55:44.323Z,97.80
2018-12-27T03:58:13.273Z,97.90
2018-12-27T04:00:42.302Z,98.10
2018-12-27T04:03:11.630Z,98.30
2018-12-27T04:05:40.640Z,98.00
2018-12-27T04:08:09.620Z,97.70
2018-12-27T04:10:38.573Z,97.40
2018-12-27T04:13:07.647Z,97.60
2018-12-27T04:15:36.482Z,97.60
2018-12-27T04:18:05.346Z,98.00
2018-12-27T04:20:34.151Z,98.30
2018-12-27T04:23:02.978Z,98.30
2018-12-27T04:25:33.029Z,98.60
2018-12-27T04:28:01.811Z,98.30
2018-12-27T04:30:31.558Z,98.30
2018-12-27T04:33:01.065Z,98.10
2018-12-27T04:35:29.991Z,98.10
2018-12-27T04:37:58.798Z,97.10
2018-12-27T04:40:27.813Z,97.10
2018-12-27T04:42:56.706Z,97.10
2018-12-27T04:45:25.511Z,97.50
2018-12-27T04:47:54.407Z,97.80
2018-12-27T04:50:23.347Z,98.40
2018-12-27T04:52:52.170Z,98.90
2018-12-27T04:55:20.954Z,99.40
2018-12-27T04:57:49.770Z,99.60
2018-12-27T05:00:18.652Z,99.80
2018-12-27T05:02:47.565Z,99.70
2018-12-27T05:05:16.382Z,99.60
2018-12-27T05:07:45.500Z,99.40
2018-12-27T05:10:14.294Z,99.40
2018-12-27T05:12:43.079Z,99.40
2018-12-27T05:15:11.997Z,99.60
2018-12-27T05:17:40.791Z,99.70
2018-12-27T05:20:09.648Z,99.70
2018-12-27T05:22:38.669Z,99.80
2018-12-27T05:25:07.482Z,99.90
2018-12-27T05:27:36.645Z,99.90
2018-12-27T05:30:05.808Z,99.90
2018-12-27T05:32:34.604Z,99.80
2018-12-27T05:35:03.793Z,99.60
2018-12-27T05:37:32.891Z,99.50
2018-12-27T05:40:01.927Z,99.30
2018-12-27T05:42:30.849Z,99.40
2018-12-27T05:44:59.675Z,99.30
2018-12-27T05:47:28.808Z,99.20
2018-12-27T05:49:57.692Z,98.80
2018-12-27T05:52:26.471Z,99.00
2018-12-27T05:54:55.910Z,98.90
2018-12-27T05:57:24.722Z,99.00
2018-12-27T05:59:53.535Z,98.90
2018-12-27T06:02:22.710Z,99.10
2018-12-27T06:04:51.543Z,99.00
2018-12-27T06:07:20.334Z,99.30
2018-12-27T06:09:49.179Z,99.20
2018-12-27T06:12:17.969Z,99.10
2018-12-27T06:14:46.766Z,99.00
2018-12-27T06:17:15.610Z,99.00
2018-12-27T06:19:46.112Z,99.10
2018-12-27T06:22:14.900Z,99.30
2018-12-27T06:24:43.695Z,99.60
2018-12-27T06:27:12.767Z,99.40
2018-12-27T06:29:41.555Z,99.60
2018-12-27T06:32:11.332Z,99.50
2018-12-27T06:34:41.434Z,99.90
2018-12-27T06:37:10.959Z,99.90
2018-12-27T06:39:39.955Z,99.90
2018-12-27T06:42:08.794Z,99.90
2018-12-27T06:44:37.636Z,99.90
2018-12-27T06:47:06.460Z,99.90
2018-12-27T06:49:35.611Z,99.90
2018-12-27T06:52:04.411Z,99.90
2018-12-27T06:54:33.315Z,99.90
2018-12-27T06:57:04.622Z,99.90
2018-12-27T06:59:33.456Z,99.50
2018-12-27T07:02:02.328Z,99.50
2018-12-27T07:04:31.159Z,99.60
2018-12-27T07:06:59.947Z,99.50
2018-12-27T07:09:28.750Z,99.80
2018-12-27T07:11:57.833Z,99.60
2018-12-27T07:14:26.651Z,99.50
2018-12-27T07:16:56.355Z,99.50
2018-12-27T07:19:25.179Z,99.40
2018-12-27T07:21:54.081Z,99.10
2018-12-27T07:24:22.939Z,99.10
2018-12-27T07:26:51.744Z,98.90
2018-12-27T07:29:21.927Z,98.80
2018-12-27T07:31:50.845Z,99.00
2018-12-27T07:34:19.648Z,99.00
2018-12-27T07:36:48.470Z,98.90
2018-12-27T07:39:17.547Z,98.90
2018-12-27T07:41:46.548Z,98.70
2018-12-27T07:44:15.391Z,98.60
2018-12-27T07:46:44.201Z,98.60
2018-12-27T07:49:13.317Z,98.60
2018-12-27T07:51:42.144Z,98.30
2018-12-27T07:54:10.977Z,97.90
2018-12-27T07:56:40.717Z,97.70
2018-12-27T07:59:09.511Z,97.40
2018-12-27T08:01:38.691Z,97.10
2018-12-27T08:04:07.553Z,96.20
2018-12-27T08:06:38.735Z,96.40
2018-12-27T08:09:08.186Z,96.20
2018-12-27T08:11:36.984Z,95.60
2018-12-27T08:14:05.881Z,96.00
2018-12-27T08:16:34.718Z,95.70
2018-12-27T08:19:03.513Z,95.50
2018-12-27T08:21:32.399Z,94.90
2018-12-27T08:24:01.284Z,94.50
2018-12-27T08:26:30.068Z,94.40
2018-12-27T08:28:58.886Z,94.40
2018-12-27T08:31:32.661Z,93.90
2018-12-27T08:34:01.465Z,93.40
2018-12-27T08:36:30.831Z,93.00
2018-12-27T08:38:59.639Z,93.10
2018-12-27T08:41:39.081Z,92.90
2018-12-27T08:44:07.874Z,93.20
2018-12-27T08:46:37.042Z,92.50
2018-12-27T08:49:06.117Z,92.20
2018-12-27T08:51:34.921Z,91.80
2018-12-27T08:54:03.765Z,91.90
2018-12-27T08:56:32.551Z,92.10
2018-12-27T08:59:01.402Z,91.80
2018-12-27T09:01:33.675Z,91.40
2018-12-27T09:04:02.467Z,90.80
2018-12-27T09:06:31.294Z,90.60
2018-12-27T09:09:00.370Z,90.70
2018-12-27T09:11:32.639Z,90.30
2018-12-27T09:14:02.843Z,90.10
2018-12-27T09:16:31.923Z,90.20
2018-12-27T09:19:00.925Z,89.30
2018-12-27T09:21:29.699Z,88.70
2018-12-27T09:23:58.500Z,88.60
2018-12-27T09:26:27.356Z,89.00
2018-12-27T09:28:56.150Z,87.80
2018-12-27T09:31:24.963Z,87.40
2018-12-27T09:33:54.524Z,86.10
2018-12-27T09:36:23.667Z,86.20
2018-12-27T09:38:52.475Z,87.00
2018-12-27T09:41:21.539Z,86.40
2018-12-27T09:43:50.575Z,86.80
2018-12-27T09:46:19.516Z,86.00
2018-12-27T09:48:48.345Z,86.90
2018-12-27T09:51:17.684Z,87.00
2018-12-27T09:53:46.550Z,86.00
2018-12-27T09:56:15.634Z,85.80
2018-12-27T09:58:44.462Z,86.00
2018-12-27T10:01:13.840Z,84.30
2018-12-27T10:03:42.867Z,84.10
2018-12-27T10:06:11.660Z,84.40
2018-12-27T10:08:40.539Z,83.50
2018-12-27T10:11:09.415Z,83.30
2018-12-27T10:13:38.355Z,82.50
2018-12-27T10:16:07.509Z,83.30
2018-12-27T10:18:36.979Z,82.20
2018-12-27T10:21:06.186Z,81.30
2018-12-27T10:23:35.366Z,81.10
2018-12-27T10:26:04.676Z,80.20
2018-12-27T10:28:33.483Z,81.20
2018-12-27T10:31:02.607Z,80.40
2018-12-27T10:33:31.536Z,79.30
2018-12-27T10:36:00.361Z,79.40
2018-12-27T10:38:30.259Z,79.60
2018-12-27T10:40:59.085Z,79.00
2018-12-27T10:43:28.241Z,79.20
2018-12-27T10:45:57.847Z,77.30
2018-12-27T10:48:26.907Z,75.90
2018-12-27T10:50:55.895Z,73.90
2018-12-27T10:53:25.170Z,74.10
2018-12-27T10:55:54.083Z,73.50
2018-12-27T10:58:23.121Z,72.90
2018-12-27T11:00:51.932Z,74.50
2018-12-27T11:03:20.856Z,75.50
2018-12-27T11:05:50.637Z,75.00
2018-12-27T11:08:19.450Z,75.00
2018-12-27T11:10:48.609Z,74.10
2018-12-27T11:13:17.455Z,71.70
2018-12-27T11:15:46.608Z,73.30
2018-12-27T11:18:15.434Z,72.90
2018-12-27T11:20:44.365Z,71.80
2018-12-27T11:23:13.184Z,72.70
2018-12-27T11:25:42.093Z,72.10
2018-12-27T11:28:11.761Z,72.30
2018-12-27T11:30:40.566Z,69.30
2018-12-27T11:33:09.592Z,71.00
2018-12-27T11:35:38.712Z,69.70
2018-12-27T11:38:07.539Z,71.10
2018-12-27T11:40:36.698Z,70.40
2018-12-27T11:43:05.563Z,68.50
2018-12-27T11:45:34.808Z,68.70
2018-12-27T11:48:04.937Z,67.70
2018-12-27T11:50:33.813Z,68.30
2018-12-27T11:53:02.686Z,69.10
2018-12-27T11:55:31.783Z,67.00
2018-12-27T11:58:00.608Z,66.80
2018-12-27T12:00:29.464Z,66.10
2018-12-27T12:02:58.921Z,65.70
2018-12-27T12:05:27.869Z,65.90
2018-12-27T12:07:56.960Z,66.00
2018-12-27T12:10:25.802Z,65.20
2018-12-27T12:12:54.856Z,62.50
2018-12-27T12:15:23.775Z,62.10
2018-12-27T12:17:52.711Z,63.70
2018-12-27T12:20:22.059Z,62.80
2018-12-27T12:22:51.351Z,62.10
2018-12-27T12:25:20.319Z,62.10
2018-12-27T12:27:49.211Z,63.70
2018-12-27T12:30:18.234Z,61.70
2018-12-27T12:32:47.105Z,61.80
2018-12-27T12:35:16.839Z,63.20
2018-12-27T12:37:46.701Z,62.70
2018-12-27T12:40:15.707Z,62.60
2018-12-27T12:42:44.547Z,61.20
2018-12-27T12:45:13.678Z,61.20
2018-12-27T12:47:42.564Z,62.70
2018-12-27T12:50:11.557Z,61.30
2018-12-27T12:52:40.355Z,60.00
2018-12-27T12:55:09.239Z,58.30
2018-12-27T12:57:38.146Z,59.10
2018-12-27T13:00:09.605Z,58.40
2018-12-27T13:02:38.911Z,57.40
2018-12-27T13:05:07.996Z,57.90
2018-12-27T13:07:36.887Z,58.40
2018-12-27T13:10:05.982Z,59.50
2018-12-27T13:12:34.776Z,59.20
2018-12-27T13:15:04.325Z,57.10
2018-12-27T13:17:33.554Z,57.00
2018-12-27T13:20:02.934Z,55.90
2018-12-27T13:22:31.797Z,55.90
2018-12-27T13:25:00.611Z,56.60
2018-12-27T13:27:30.067Z,55.90
2018-12-27T13:29:59.575Z,57.20
2018-12-27T13:32:28.444Z,56.30
2018-12-27T13:34:57.249Z,56.90
2018-12-27T13:37:26.239Z,55.70
2018-12-27T13:39:55.099Z,55.90
2018-12-27T13:42:24.390Z,56.30
2018-12-27T13:44:53.234Z,57.70
2018-12-27T13:47:22.060Z,56.70
2018-12-27T13:49:50.959Z,56.50
2018-12-27T13:52:20.025Z,57.80
2018-12-27T13:54:48.859Z,58.10
2018-12-27T13:57:17.986Z,58.30
2018-12-27T13:59:46.809Z,58.60
2018-12-27T14:02:15.750Z,58.00
2018-12-27T14:04:44.570Z,57.30
2018-12-27T14:07:13.394Z,57.10
2018-12-27T14:09:42.262Z,58.60
2018-12-27T14:12:11.182Z,57.50
2018-12-27T14:14:40.023Z,58.30
2018-12-27T14:17:09.217Z,59.00
2018-12-27T14:19:38.085Z,56.80
2018-12-27T14:22:06.976Z,56.60
2018-12-27T14:24:35.907Z,57.30
2018-12-27T14:27:04.823Z,57.20
2018-12-27T14:29:33.627Z,57.00
2018-12-27T14:32:02.504Z,56.80
2018-12-27T14:34:31.751Z,56.40
2018-12-27T14:37:01.344Z,56.70
2018-12-27T14:39:30.454Z,56.70
2018-12-27T14:41:59.245Z,57.50
2018-12-27T14:44:28.041Z,58.20
2018-12-27T14:46:56.959Z,58.60
2018-12-27T14:49:25.763Z,60.20
2018-12-27T14:51:54.827Z,60.00
2018-12-27T14:54:23.679Z,60.30
2018-12-27T14:56:52.500Z,60.50
2018-12-27T14:59:21.334Z,61.40
2018-12-27T15:01:50.245Z,63.10
2018-12-27T15:04:19.424Z,62.90
2018-12-27T15:06:48.880Z,61.40
2018-12-27T15:09:17.849Z,61.40
2018-12-27T15:11:48.748Z,62.10
2018-12-27T15:14:18.010Z,64.00
2018-12-27T15:16:46.895Z,63.20
2018-12-27T15:19:15.781Z,63.40
2018-12-27T15:21:44.734Z,65.00
2018-12-27T15:24:13.519Z,65.90
2018-12-27T15:26:42.680Z,67.30
2018-12-27T15:29:11.522Z,66.80
2018-12-27T15:31:40.759Z,68.00
2018-12-27T15:34:09.765Z,69.40
2018-12-27T15:36:38.571Z,69.70
2018-12-27T15:39:07.648Z,71.00
2018-12-27T15:41:36.489Z,70.70
2018-12-27T15:44:05.352Z,70.50
2018-12-27T15:46:34.531Z,71.20
2018-12-27T15:49:03.640Z,72.00
2018-12-27T15:51:32.508Z,72.40
2018-12-27T15:54:01.299Z,72.00
2018-12-27T15:56:30.659Z,72.40
2018-12-27T15:58:59.839Z,71.80
2018-12-27T16:01:28.680Z,72.20
2018-12-27T16:03:57.659Z,73.70
2018-12-27T16:06:26.532Z,74.30
2018-12-27T16:08:55.464Z,75.30
2018-12-27T16:11:24.278Z,75.50
2018-12-27T16:13:53.220Z,77.00
2018-12-27T16:16:22.014Z,77.30
2018-12-27T16:18:50.963Z,77.70
2018-12-27T16:21:19.863Z,78.80
2018-12-27T16:23:48.655Z,80.20
2018-12-27T16:26:17.531Z,80.70
2018-12-27T16:28:46.476Z,81.50
2018-12-27T16:31:15.322Z,81.90
2018-12-27T16:33:44.122Z,82.20
2018-12-27T16:36:12.902Z,82.30
2018-12-27T16:38:41.773Z,83.20
2018-12-27T16:41:10.769Z,84.30
2018-12-27T16:43:39.593Z,83.60
2018-12-27T16:46:09.059Z,85.00
2018-12-27T16:48:37.875Z,85.50
2018-12-27T16:51:06.770Z,86.40
2018-12-27T16:53:35.740Z,86.80
2018-12-27T16:56:04.608Z,86.90
2018-12-27T16:58:33.462Z,86.60
2018-12-27T17:01:02.628Z,86.50
2018-12-27T17:03:32.296Z,87.50
2018-12-27T17:06:01.338Z,86.80
2018-12-27T17:08:30.214Z,88.30
2018-12-27T17:10:59.372Z,88.10
2018-12-27T17:13:28.208Z,88.00
2018-12-27T17:15:57.355Z,88.00
2018-12-27T17:18:26.306Z,88.00
2018-12-27T17:20:55.151Z,89.40
2018-12-27T17:23:23.966Z,90.60
2018-12-27T17:25:52.879Z,90.70
2018-12-27T17:28:21.869Z,90.90
2018-12-27T17:30:50.732Z,91.10
2018-12-27T17:33:19.550Z,90.90
2018-12-27T17:35:48.510Z,91.40
2018-12-27T17:38:17.662Z,91.40
2018-12-27T17:40:46.531Z,91.40
2018-12-27T17:43:15.395Z,91.70
2018-12-27T17:45:44.212Z,91.70
2018-12-27T17:48:13.467Z,91.70
2018-12-27T17:50:42.369Z,91.90
2018-12-27T17:53:11.219Z,91.90
2018-12-27T17:55:40.060Z,92.10
2018-12-27T17:58:08.863Z,92.60
2018-12-27T18:00:37.667Z,92.60
2018-12-27T18:03:06.673Z,92.90
2018-12-27T18:05:35.745Z,92.90
2018-12-27T18:08:04.597Z,93.10
2018-12-27T18:10:33.632Z,93.30
2018-12-27T18:13:02.632Z,93.40
2018-12-27T18:15:31.633Z,93.80
2018-12-27T18:18:00.861Z,94.30
2018-12-27T18:20:29.843Z,93.70
2018-12-27T18:22:58.669Z,93.50
2018-12-27T18:25:27.476Z,93.30
2018-12-27T18:27:56.340Z,93.40
2018-12-27T18:30:25.159Z,92.80
2018-12-27T18:32:53.986Z,92.40
2018-12-27T18:35:23.191Z,92.10
2018-12-27T18:37:52.017Z,91.30
2018-12-27T18:40:20.868Z,91.10
2018-12-27T18:42:50.004Z,91.20
2018-12-27T18:45:18.954Z,90.60
2018-12-27T18:47:47.888Z,90.00
2018-12-27T18:50:16.701Z,90.50
2018-12-27T18:52:45.506Z,90.40
2018-12-27T18:55:20.085Z,90.20
2018-12-27T18:57:45.144Z,90.40
2018-12-27T19:00:13.968Z,90.70
2018-12-27T19:02:43.136Z,90.30
2018-12-27T19:05:12.307Z,90.90
2018-12-27T19:07:44.926Z,91.30
2018-12-27T19:10:12.134Z,91.30
2018-12-27T19:13:06.856Z,91.10
2018-12-27T19:15:42.634Z,91.10
2018-12-27T19:18:22.224Z,88.30
2018-12-27T19:20:55.215Z,86.10
2018-12-27T19:23:24.595Z,85.40
2018-12-27T19:25:53.515Z,87.40
2018-12-27T19:28:22.367Z,89.50
2018-12-27T19:30:51.175Z,90.00
2018-12-27T19:33:20.030Z,90.40
2018-12-27T19:35:48.864Z,89.00
2018-12-27T19:38:17.707Z,88.60
2018-12-27T19:40:46.538Z,89.40
2018-12-27T19:43:15.327Z,90.00
2018-12-27T19:45:44.281Z,89.60
2018-12-27T19:48:13.087Z,90.20
2018-12-27T19:50:42.199Z,90.40
2018-12-27T19:53:11.196Z,90.10
2018-12-27T19:55:40.146Z,90.30
2018-12-27T19:58:08.958Z,90.30
2018-12-27T20:00:37.964Z,89.80
2018-12-27T20:03:06.791Z,89.20
2018-12-27T20:05:35.955Z,90.20
2018-12-27T20:08:04.808Z,90.30
2018-12-27T20:10:33.711Z,90.50
2018-12-27T20:13:02.599Z,90.40
2018-12-27T20:15:31.532Z,90.20
2018-12-27T20:18:00.376Z,88.90
2018-12-27T20:20:29.201Z,88.30
2018-12-27T20:22:58.099Z,88.00
2018-12-27T20:25:26.892Z,88.00
2018-12-27T20:27:55.697Z,87.40
2018-12-27T20:30:24.643Z,87.70
2018-12-27T20:32:54.011Z,87.70
2018-12-27T20:35:22.940Z,89.40
2018-12-27T20:37:52.127Z,90.00
2018-12-27T20:40:21.275Z,90.10
2018-12-27T20:42:50.162Z,90.00
2018-12-27T20:45:18.960Z,90.30
2018-12-27T20:47:47.910Z,90.70
2018-12-27T20:50:17.090Z,90.50
2018-12-27T20:52:46.048Z,90.20
2018-12-27T20:55:15.424Z,90.50
2018-12-27T20:57:44.315Z,89.70
2018-12-27T21:00:14.311Z,90.20
2018-12-27T21:02:43.129Z,89.30
2018-12-27T21:05:11.913Z,89.20
2018-12-27T21:07:40.777Z,88.70
2018-12-27T21:10:09.246Z,89.20
2018-12-27T21:12:38.503Z,89.70
2018-12-27T21:15:07.936Z,89.80
2018-12-27T21:17:36.815Z,88.90
2018-12-27T21:20:05.660Z,88.90
2018-12-27T21:22:34.480Z,89.50
2018-12-27T21:25:03.471Z,90.50
2018-12-27T21:27:32.313Z,91.20
2018-12-27T21:30:01.125Z,91.20
2018-12-27T21:32:29.946Z,91.20
2018-12-27T21:34:58.860Z,92.00
2018-12-27T21:37:27.701Z,91.80
2018-12-27T21:39:56.541Z,92.00
2018-12-27T21:42:25.408Z,92.70
2018-12-27T21:44:54.778Z,93.20
2018-12-27T21:47:23.666Z,93.40
2018-12-27T21:49:52.539Z,93.10
2018-12-27T21:52:21.437Z,93.40
2018-12-27T21:54:50.264Z,93.50
2018-12-27T21:57:19.400Z,93.60
2018-12-27T21:59:48.956Z,93.80
2018-12-27T22:02:18.327Z,93.80
2018-12-27T22:04:47.572Z,93.40
2018-12-27T22:07:16.840Z,93.50
2018-12-27T22:09:45.776Z,93.60
2018-12-27T22:12:14.564Z,93.40
2018-12-27T22:14:43.615Z,93.40
2018-12-27T22:17:12.485Z,93.80
2018-12-27T22:19:41.315Z,93.70
2018-12-27T22:22:10.385Z,93.50
2018-12-27T22:24:39.215Z,93.50
2018-12-27T22:27:08.058Z,93.70
2018-12-27T22:29:36.986Z,93.50
2018-12-27T22:32:05.763Z,93.50
2018-12-27T22:34:34.590Z,93.80
2018-12-27T22:37:03.415Z,93.90
2018-12-27T22:39:32.206Z,93.90
2018-12-27T22:42:01.043Z,94.20
2018-12-27T22:44:30.118Z,93.90
2018-12-27T22:46:59.184Z,93.90
2018-12-27T22:49:28.170Z,93.70
2018-12-27T22:51:57.282Z,93.50
2018-12-27T22:54:26.340Z,93.40
2018-12-27T22:56:55.234Z,93.70
2018-12-27T22:59:24.060Z,93.40
2018-12-27T23:01:53.112Z,93.10
2018-12-27T23:04:21.963Z,92.70
2018-12-27T23:06:50.789Z,92.70
2018-12-27T23:09:19.595Z,92.30
2018-12-27T23:11:48.711Z,92.70
2018-12-27T23:14:17.503Z,92.90
2018-12-27T23:16:46.371Z,92.00
2018-12-27T23:19:15.560Z,92.20
2018-12-27T23:21:44.399Z,92.20
2018-12-27T23:24:13.183Z,92.40
2018-12-27T23:26:42.040Z,92.70
2018-12-27T23:29:10.892Z,92.90
2018-12-27T23:31:39.685Z,92.90
2018-12-27T23:34:09.011Z,93.30
2018-12-27T23:36:37.820Z,93.50
2018-12-27T23:39:07.924Z,93.70
2018-12-27T23:41:37.092Z,93.50
2018-12-27T23:44:05.880Z,93.90
2018-12-27T23:46:35.062Z,94.10
2018-12-27T23:49:03.957Z,94.20
2018-12-27T23:51:32.762Z,94.30
2018-12-27T23:54:01.720Z,94.10
2018-12-27T23:56:30.540Z,94.50
2018-12-27T23:58:59.742Z,94.50
